createdAt,value
2023-06-14T00:02:09.881Z,4.00
2023-06-14T00:04:38.903Z,4.22
2023-06-14T00:07:09.246Z,3.85
2023-06-14T00:09:37.458Z,4.60
2023-06-14T00:12:07.235Z,4.20
2023-06-14T00:14:37.037Z,4.20
2023-06-14T00:17:05.172Z,4.35
2023-06-14T00:19:36.393Z,4.50
2023-06-14T00:22:04.408Z,4.28
2023-06-14T00:24:32.302Z,3.83
2023-06-14T00:27:00.245Z,3.92
2023-06-14T00:29:28.200Z,4.70
2023-06-14T00:31:57.455Z,4.05
2023-06-14T00:34:28.353Z,4.38
2023-06-14T00:36:56.498Z,4.65
2023-06-14T00:39:24.499Z,3.90
2023-06-14T00:41:52.477Z,3.88
2023-06-14T00:44:22.507Z,4.55
2023-06-14T00:46:50.855Z,3.85
2023-06-14T00:49:21.250Z,4.07
2023-06-14T00:51:49.347Z,4.15
2023-06-14T00:54:17.234Z,4.43
2023-06-14T00:56:46.492Z,4.15
2023-06-14T00:59:14.777Z,4.22
2023-06-14T01:01:42.794Z,4.17
2023-06-14T01:04:10.919Z,4.20
2023-06-14T01:09:21.248Z,4.28
2023-06-14T01:11:56.499Z,4.05
2023-06-14T01:14:25.803Z,4.22
2023-06-14T01:16:56.382Z,4.30
2023-06-14T01:19:26.808Z,4.13
2023-06-14T01:21:56.276Z,4.38
2023-06-14T01:24:26.874Z,4.80
2023-06-14T01:26:56.890Z,5.15
2023-06-14T01:29:26.570Z,4.60
2023-06-14T01:31:55.858Z,4.28
2023-06-14T01:34:24.164Z,4.13
2023-06-14T01:36:55.754Z,4.25
2023-06-14T01:39:26.083Z,4.22
2023-06-14T01:41:54.540Z,4.25
2023-06-14T01:44:23.789Z,5.20
2023-06-14T01:46:51.790Z,4.68
2023-06-14T01:49:19.812Z,4.20
2023-06-14T01:51:47.691Z,4.25
2023-06-14T01:54:17.199Z,4.82
2023-06-14T01:56:46.524Z,4.80
2023-06-14T01:59:14.535Z,5.13
2023-06-14T02:01:42.493Z,4.70
2023-06-14T02:04:10.793Z,5.23
2023-06-14T02:06:39.496Z,5.20
2023-06-14T02:09:07.405Z,5.32
2023-06-14T02:11:35.345Z,4.80
2023-06-14T02:14:04.649Z,5.40
2023-06-14T02:16:36.981Z,4.85
2023-06-14T02:19:05.236Z,4.97
2023-06-14T02:21:33.193Z,4.82
2023-06-14T02:24:02.841Z,5.65
2023-06-14T02:26:33.117Z,4.97
2023-06-14T02:29:01.093Z,4.72
2023-06-14T02:31:31.055Z,5.10
2023-06-14T02:33:59.166Z,5.20
2023-06-14T02:36:27.423Z,5.28
2023-06-14T02:38:56.224Z,4.57
2023-06-14T02:41:24.208Z,4.85
2023-06-14T02:43:54.524Z,4.68
2023-06-14T02:46:22.466Z,4.20
2023-06-14T02:51:20.691Z,4.97
2023-06-14T02:53:48.586Z,5.00
2023-06-14T02:56:18.499Z,5.00
2023-06-14T02:58:49.796Z,4.78
2023-06-14T03:01:19.144Z,5.05
2023-06-14T03:03:47.141Z,4.65
2023-06-14T03:06:17.760Z,4.68
2023-06-14T03:08:50.034Z,5.47
2023-06-14T03:11:21.757Z,5.13
2023-06-14T03:13:52.109Z,4.82
2023-06-14T03:16:22.906Z,5.00
2023-06-14T03:18:51.674Z,4.85
2023-06-14T03:21:21.721Z,4.82
2023-06-14T03:23:50.660Z,4.85
2023-06-14T03:26:19.311Z,4.63
2023-06-14T03:28:50.783Z,5.63
2023-06-14T03:31:20.325Z,4.80
2023-06-14T03:33:49.470Z,5.00
2023-06-14T03:36:18.842Z,4.30
2023-06-14T03:38:48.477Z,4.78
2023-06-14T03:41:18.783Z,4.68
2023-06-14T03:43:47.236Z,4.50
2023-06-14T03:46:15.584Z,4.43
2023-06-14T03:48:44.128Z,4.65
2023-06-14T03:51:13.205Z,4.72
2023-06-14T03:53:53.303Z,5.07
2023-06-14T03:56:30.933Z,4.60
2023-06-14T03:58:59.650Z,4.78
2023-06-14T04:01:30.590Z,5.40
2023-06-14T04:04:01.086Z,4.82
2023-06-14T04:06:33.370Z,4.97
2023-06-14T04:09:04.966Z,5.10
2023-06-14T04:11:34.218Z,4.93
2023-06-14T04:14:03.892Z,5.07
2023-06-14T04:16:31.996Z,5.68
2023-06-14T04:19:02.650Z,5.25
2023-06-14T04:21:30.615Z,5.30
2023-06-14T04:24:03.284Z,5.15
2023-06-14T04:26:34.536Z,5.30
2023-06-14T04:29:03.615Z,5.13
2023-06-14T04:31:38.538Z,5.50
2023-06-14T04:34:07.698Z,5.03
2023-06-14T04:36:38.177Z,6.22
2023-06-14T04:39:07.266Z,5.43
2023-06-14T04:41:38.122Z,5.10
2023-06-14T04:44:06.098Z,5.57
2023-06-14T04:46:45.214Z,5.22
2023-06-14T04:49:16.453Z,5.82
2023-06-14T04:51:44.612Z,4.97
2023-06-14T04:54:15.117Z,4.93
2023-06-14T04:56:46.119Z,5.20
2023-06-14T04:59:15.904Z,4.88
2023-06-14T05:01:49.359Z,5.07
2023-06-14T05:04:17.481Z,5.22
2023-06-14T05:06:46.196Z,5.40
2023-06-14T05:09:15.693Z,4.90
2023-06-14T05:11:45.222Z,4.85
2023-06-14T05:14:14.323Z,5.22
2023-06-14T05:16:43.923Z,5.68
2023-06-14T05:19:12.305Z,5.40
2023-06-14T05:21:43.531Z,5.75
2023-06-14T05:24:12.460Z,5.55
2023-06-14T05:26:40.851Z,5.72
2023-06-14T05:29:10.087Z,5.43
2023-06-14T05:31:38.072Z,5.25
2023-06-14T05:34:06.286Z,4.73
2023-06-14T05:36:34.275Z,5.32
2023-06-14T05:39:04.071Z,5.45
2023-06-14T05:41:31.982Z,5.40
2023-06-14T05:44:01.101Z,5.20
2023-06-14T05:46:30.484Z,5.20
2023-06-14T05:48:59.042Z,5.65
2023-06-14T05:53:55.754Z,4.78
2023-06-14T05:56:23.757Z,4.68
2023-06-14T05:58:51.780Z,4.78
2023-06-14T06:01:20.314Z,4.72
2023-06-14T06:03:49.601Z,5.30
2023-06-14T06:06:18.229Z,5.00
2023-06-14T06:11:13.991Z,4.38
2023-06-14T06:13:42.415Z,4.30
2023-06-14T06:18:38.100Z,4.53
2023-06-14T06:21:07.973Z,4.28
2023-06-14T06:23:36.774Z,4.13
2023-06-14T06:26:05.020Z,4.22
2023-06-14T06:28:32.905Z,4.10
2023-06-14T06:31:03.094Z,3.97
2023-06-14T06:33:32.627Z,4.22
2023-06-14T06:36:00.504Z,4.78
2023-06-14T06:38:29.728Z,4.47
2023-06-14T06:40:57.736Z,4.38
2023-06-14T06:43:25.741Z,5.00
2023-06-14T06:45:53.649Z,4.15
2023-06-14T06:48:21.544Z,3.90
2023-06-14T06:50:49.561Z,4.28
2023-06-14T06:53:23.988Z,4.03
2023-06-14T06:55:59.977Z,3.85
2023-06-14T06:58:28.162Z,4.15
2023-06-14T07:00:56.061Z,3.78
2023-06-14T07:03:24.322Z,3.80
2023-06-14T07:05:52.263Z,3.78
2023-06-14T07:08:20.129Z,4.28
2023-06-14T07:10:48.202Z,3.90
2023-06-14T07:13:17.459Z,3.95
2023-06-14T07:15:45.434Z,4.40
2023-06-14T07:18:16.352Z,4.05
2023-06-14T07:20:44.709Z,4.22
2023-06-14T07:23:12.925Z,4.05
2023-06-14T07:25:40.775Z,3.92
2023-06-14T07:28:08.678Z,4.30
2023-06-14T07:30:37.949Z,4.00
2023-06-14T07:33:07.023Z,4.70
2023-06-14T07:35:34.928Z,4.22
2023-06-14T07:38:03.067Z,4.72
2023-06-14T07:40:31.181Z,4.47
2023-06-14T07:42:58.991Z,4.55
2023-06-14T07:45:26.906Z,3.93
2023-06-14T07:47:56.208Z,3.42
2023-06-14T07:50:24.669Z,3.53
2023-06-14T07:52:52.509Z,3.40
2023-06-14T07:55:20.418Z,4.15
2023-06-14T07:57:48.460Z,4.15
2023-06-14T08:00:17.267Z,3.42
2023-06-14T08:02:45.777Z,3.35
2023-06-14T08:07:43.665Z,3.47
2023-06-14T08:10:11.806Z,3.92
2023-06-14T08:12:39.977Z,3.60
2023-06-14T08:15:14.429Z,3.00
2023-06-14T08:17:44.207Z,2.92
2023-06-14T08:20:13.042Z,3.25
2023-06-14T08:22:43.558Z,3.20
2023-06-14T08:25:12.329Z,3.00
2023-06-14T08:27:40.193Z,3.13
2023-06-14T08:30:09.892Z,2.83
2023-06-14T08:32:37.875Z,2.58
2023-06-14T08:35:07.206Z,3.40
2023-06-14T08:37:35.484Z,2.72
2023-06-14T08:40:07.332Z,2.92
2023-06-14T08:42:36.675Z,2.90
2023-06-14T08:45:05.040Z,2.95
2023-06-14T08:47:41.753Z,2.70
2023-06-14T08:50:27.294Z,2.50
2023-06-14T08:52:58.433Z,3.10
2023-06-14T08:55:29.310Z,2.80
2023-06-14T08:57:58.981Z,3.33
2023-06-14T09:00:28.301Z,2.67
2023-06-14T09:02:59.090Z,2.42
2023-06-14T09:05:28.396Z,2.67
2023-06-14T09:07:57.769Z,2.50
2023-06-14T09:10:29.815Z,2.42
2023-06-14T09:12:58.048Z,2.60
2023-06-14T09:15:25.950Z,2.80
2023-06-14T09:17:53.801Z,2.72
2023-06-14T09:20:21.695Z,3.13
2023-06-14T09:22:49.552Z,2.60
2023-06-14T09:25:33.123Z,2.70
2023-06-14T09:28:09.075Z,2.92
2023-06-14T09:30:38.643Z,2.60
2023-06-14T09:33:06.648Z,2.50
2023-06-14T09:35:34.874Z,2.20
2023-06-14T09:38:02.788Z,2.30
2023-06-14T09:40:30.646Z,2.80
2023-06-14T09:43:00.561Z,2.70
2023-06-14T09:45:31.019Z,2.50
2023-06-14T09:48:07.727Z,2.65
2023-06-14T09:50:36.335Z,2.67
2023-06-14T09:53:09.119Z,2.20
2023-06-14T09:55:38.905Z,2.00
2023-06-14T09:58:08.994Z,2.58
2023-06-14T10:00:39.529Z,2.22
2023-06-14T10:03:14.112Z,2.15
2023-06-14T10:05:45.508Z,2.50
2023-06-14T10:08:18.003Z,2.30
2023-06-14T10:10:46.636Z,2.30
2023-06-14T10:13:15.301Z,2.05
2023-06-14T10:15:54.646Z,2.10
2023-06-14T10:18:30.374Z,2.35
2023-06-14T10:21:10.974Z,2.20
2023-06-14T10:23:44.910Z,2.30
2023-06-14T10:26:22.327Z,2.20
2023-06-14T10:28:59.979Z,2.10
2023-06-14T10:31:45.397Z,2.05
2023-06-14T10:34:14.016Z,2.53
2023-06-14T10:36:44.660Z,2.15
2023-06-14T10:39:16.644Z,1.95
2023-06-14T10:41:52.280Z,1.85
2023-06-14T10:44:42.765Z,1.77
2023-06-14T10:47:26.205Z,2.15
2023-06-14T10:49:56.158Z,2.05
2023-06-14T10:52:26.599Z,1.88
2023-06-14T10:55:16.254Z,2.10
2023-06-14T10:57:51.846Z,1.85
2023-06-14T11:00:23.802Z,2.17
2023-06-14T11:03:44.276Z,1.80
2023-06-14T11:06:17.963Z,1.80
2023-06-14T11:09:09.044Z,1.88
2023-06-14T11:11:39.785Z,1.92
2023-06-14T11:14:08.485Z,1.67
2023-06-14T11:19:06.312Z,2.33
2023-06-14T11:21:35.815Z,2.20
2023-06-14T11:24:03.719Z,1.90
2023-06-14T11:26:35.607Z,2.13
2023-06-14T11:29:03.536Z,1.95
2023-06-14T11:31:31.985Z,3.20
2023-06-14T11:34:01.114Z,2.20
2023-06-14T11:36:31.576Z,1.98
2023-06-14T11:39:06.890Z,2.20
2023-06-14T11:41:35.890Z,1.80
2023-06-14T11:44:04.808Z,2.10
2023-06-14T11:46:32.715Z,2.03
2023-06-14T11:49:04.026Z,1.87
2023-06-14T11:51:32.874Z,2.03
2023-06-14T11:56:30.127Z,2.30
2023-06-14T11:58:58.511Z,2.35
2023-06-14T12:01:26.962Z,2.25
2023-06-14T12:03:56.286Z,1.90
2023-06-14T12:06:30.406Z,2.15
2023-06-14T12:08:58.878Z,1.70
2023-06-14T12:11:34.470Z,1.90
2023-06-14T12:14:02.609Z,2.10
2023-06-14T12:16:34.671Z,2.28
2023-06-14T12:19:09.630Z,2.13
2023-06-14T12:21:39.707Z,2.17
2023-06-14T12:24:08.147Z,2.03
2023-06-14T12:26:41.035Z,2.10
2023-06-14T12:29:09.372Z,1.67
2023-06-14T12:31:37.360Z,1.80
2023-06-14T12:34:05.334Z,1.90
2023-06-14T12:36:33.474Z,1.80
2023-06-14T12:39:01.408Z,1.77
2023-06-14T12:41:29.349Z,1.90
2023-06-14T12:44:00.781Z,2.03
2023-06-14T12:46:28.749Z,1.70
2023-06-14T12:48:56.666Z,1.83
2023-06-14T12:51:24.693Z,2.27
2023-06-14T12:53:52.608Z,1.80
2023-06-14T12:56:21.532Z,1.80
2023-06-14T12:58:50.538Z,1.85
2023-06-14T13:01:19.889Z,2.07
2023-06-14T13:03:48.151Z,1.70
2023-06-14T13:06:16.172Z,2.30
2023-06-14T13:08:44.194Z,1.90
2023-06-14T13:11:12.152Z,2.30
2023-06-14T13:13:40.493Z,2.00
2023-06-14T13:16:08.355Z,1.77
2023-06-14T13:18:37.600Z,1.80
2023-06-14T13:21:05.488Z,1.60
2023-06-14T13:23:33.375Z,1.70
2023-06-14T13:26:04.045Z,2.08
2023-06-14T13:28:32.737Z,2.00
2023-06-14T13:31:00.642Z,1.65
2023-06-14T13:33:28.626Z,1.73
2023-06-14T13:35:58.097Z,2.00
2023-06-14T13:38:26.030Z,2.15
2023-06-14T13:40:53.932Z,2.13
2023-06-14T13:43:24.064Z,2.38
2023-06-14T13:45:52.026Z,1.80
2023-06-14T13:48:19.997Z,1.80
2023-06-14T13:50:48.731Z,2.00
2023-06-14T13:53:18.074Z,2.60
2023-06-14T13:55:46.148Z,1.75
2023-06-14T13:58:15.558Z,1.90
2023-06-14T14:00:43.491Z,2.05
2023-06-14T14:03:11.365Z,2.03
2023-06-14T14:05:39.373Z,1.90
2023-06-14T14:08:07.289Z,2.37
2023-06-14T14:10:36.557Z,1.90
2023-06-14T14:13:04.519Z,2.10
2023-06-14T14:15:35.754Z,2.00
2023-06-14T14:18:04.716Z,2.22
2023-06-14T14:23:01.585Z,2.15
2023-06-14T14:25:29.457Z,2.65
2023-06-14T14:27:58.676Z,2.10
2023-06-14T14:30:26.914Z,1.95
2023-06-14T14:32:55.838Z,2.30
2023-06-14T14:37:54.838Z,2.30
2023-06-14T14:40:22.823Z,2.00
2023-06-14T14:42:50.685Z,2.17
2023-06-14T14:45:19.990Z,2.17
2023-06-14T14:47:48.003Z,2.20
2023-06-14T14:50:17.817Z,1.90
2023-06-14T14:52:45.911Z,2.40
2023-06-14T14:55:14.330Z,1.95
2023-06-14T14:57:42.243Z,2.47
2023-06-14T15:00:11.077Z,2.17
2023-06-14T15:05:08.674Z,2.20
2023-06-14T15:07:36.556Z,2.05
2023-06-14T15:10:05.903Z,2.10
2023-06-14T15:12:33.764Z,2.03
2023-06-14T15:15:01.701Z,1.88
2023-06-14T15:17:29.811Z,2.00
2023-06-14T15:19:59.139Z,1.90
2023-06-14T15:22:27.082Z,1.90
2023-06-14T15:24:55.085Z,1.75
2023-06-14T15:27:23.433Z,1.67
2023-06-14T15:29:51.894Z,2.00
2023-06-14T15:32:19.917Z,1.95
2023-06-14T15:34:49.261Z,2.40
2023-06-14T15:37:18.603Z,2.30
2023-06-14T15:39:46.568Z,1.95
2023-06-14T15:42:14.561Z,1.90
2023-06-14T15:44:43.159Z,2.00
2023-06-14T15:47:11.165Z,1.80
2023-06-14T15:49:39.052Z,1.70
2023-06-14T15:52:07.766Z,1.77
2023-06-14T15:54:36.976Z,1.60
2023-06-14T15:57:05.123Z,1.65
2023-06-14T15:59:32.988Z,2.10
2023-06-14T16:02:00.999Z,1.70
2023-06-14T16:04:29.806Z,1.85
2023-06-14T16:06:57.872Z,1.80
2023-06-14T16:09:25.812Z,2.00
2023-06-14T16:11:55.965Z,1.80
2023-06-14T16:14:23.913Z,1.50
2023-06-14T16:16:53.433Z,1.53
2023-06-14T16:19:22.184Z,1.60
2023-06-14T16:21:50.250Z,1.60
2023-06-14T16:24:18.212Z,1.80
2023-06-14T16:26:46.143Z,1.67
2023-06-14T16:29:15.998Z,1.83
2023-06-14T16:31:43.933Z,1.50
2023-06-14T16:34:12.531Z,1.73
2023-06-14T16:36:40.632Z,1.88
2023-06-14T16:39:08.807Z,1.70
2023-06-14T16:41:36.746Z,1.88
2023-06-14T16:44:06.054Z,1.75
2023-06-14T16:46:36.794Z,1.63
2023-06-14T16:49:04.936Z,1.83
2023-06-14T16:51:32.829Z,1.80
2023-06-14T16:54:00.769Z,3.30
2023-06-14T16:56:28.844Z,1.95
2023-06-14T16:58:57.295Z,1.60
2023-06-14T17:01:25.857Z,1.90
2023-06-14T17:03:55.324Z,1.95
2023-06-14T17:06:24.969Z,2.60
2023-06-14T17:08:54.095Z,2.10
2023-06-14T17:11:24.289Z,1.92
2023-06-14T17:13:53.031Z,2.25
2023-06-14T17:16:21.638Z,2.08
2023-06-14T17:18:49.799Z,2.00
2023-06-14T17:21:19.079Z,1.98
2023-06-14T17:23:47.004Z,1.65
2023-06-14T17:26:14.968Z,1.98
2023-06-14T17:28:42.831Z,1.90
2023-06-14T17:31:10.796Z,1.83
2023-06-14T17:33:38.678Z,2.03
2023-06-14T17:36:06.962Z,2.17
2023-06-14T17:38:37.121Z,1.70
2023-06-14T17:41:09.806Z,1.67
2023-06-14T17:43:38.187Z,2.33
2023-06-14T17:46:07.157Z,1.92
2023-06-14T17:48:35.316Z,1.80
2023-06-14T17:51:03.269Z,1.95
2023-06-14T17:53:31.287Z,1.80
2023-06-14T17:56:01.621Z,1.92
2023-06-14T17:58:29.613Z,2.22
2023-06-14T18:00:57.552Z,2.30
2023-06-14T18:03:25.778Z,2.13
2023-06-14T18:05:53.841Z,1.92
2023-06-14T18:08:21.713Z,1.85
2023-06-14T18:10:49.655Z,2.08
2023-06-14T18:13:18.955Z,1.90
2023-06-14T18:15:46.837Z,1.70
2023-06-14T18:18:14.856Z,2.13
2023-06-14T18:20:42.806Z,1.80
2023-06-14T18:23:12.651Z,2.22
2023-06-14T18:25:41.100Z,1.95
2023-06-14T18:28:09.098Z,2.00
2023-06-14T18:30:38.457Z,1.90
2023-06-14T18:33:09.487Z,2.05
2023-06-14T18:35:37.722Z,1.95
2023-06-14T18:38:07.338Z,2.00
2023-06-14T18:40:35.712Z,2.00
2023-06-14T18:43:04.060Z,2.03
2023-06-14T18:45:33.164Z,2.13
2023-06-14T18:48:02.833Z,1.90
2023-06-14T18:50:31.028Z,1.90
2023-06-14T18:52:58.951Z,1.73
2023-06-14T18:55:26.895Z,2.00
2023-06-14T18:57:54.868Z,1.73
2023-06-14T19:00:22.869Z,2.00
2023-06-14T19:02:50.937Z,1.70
2023-06-14T19:05:22.758Z,1.80
2023-06-14T19:07:52.478Z,1.60
2023-06-14T19:10:20.544Z,1.80
2023-06-14T19:12:48.453Z,1.88
2023-06-14T19:15:16.784Z,1.67
2023-06-14T19:17:55.617Z,2.00
2023-06-14T19:20:25.612Z,2.10
2023-06-14T19:22:53.560Z,2.10
2023-06-14T19:25:21.650Z,1.80
2023-06-14T19:27:49.819Z,2.00
2023-06-14T19:30:18.241Z,1.90
2023-06-14T19:32:46.731Z,1.58
2023-06-14T19:35:14.974Z,1.98
2023-06-14T19:37:44.338Z,2.05
2023-06-14T19:40:14.111Z,2.13
2023-06-14T19:42:42.548Z,2.20
2023-06-14T19:45:11.319Z,2.03
2023-06-14T19:47:39.269Z,1.80
2023-06-14T19:50:08.663Z,2.00
2023-06-14T19:52:36.665Z,1.65
2023-06-14T19:55:06.694Z,2.15
2023-06-14T19:57:34.615Z,1.88
2023-06-14T20:00:04.486Z,1.98
2023-06-14T20:02:36.114Z,1.83
2023-06-14T20:05:04.535Z,1.60
2023-06-14T20:07:33.222Z,2.00
2023-06-14T20:10:01.154Z,1.70
2023-06-14T20:12:30.341Z,1.70
2023-06-14T20:14:58.313Z,1.90
2023-06-14T20:17:26.188Z,1.73
2023-06-14T20:19:54.144Z,1.80
2023-06-14T20:22:22.025Z,2.25
2023-06-14T20:24:49.961Z,2.13
2023-06-14T20:27:17.923Z,1.80
2023-06-14T20:29:47.218Z,2.00
2023-06-14T20:32:15.656Z,2.00
2023-06-14T20:34:43.651Z,1.92
2023-06-14T20:37:11.538Z,1.90
2023-06-14T20:39:39.376Z,1.70
2023-06-14T20:42:17.221Z,2.00
2023-06-14T20:44:55.580Z,1.70
2023-06-14T20:47:23.944Z,1.80
2023-06-14T20:49:51.889Z,2.10
2023-06-14T20:52:19.850Z,1.90
2023-06-14T20:54:48.482Z,2.30
2023-06-14T20:57:18.734Z,2.10
2023-06-14T20:59:47.058Z,1.92
2023-06-14T21:02:18.672Z,2.13
2023-06-14T21:04:47.314Z,2.10
2023-06-14T21:07:15.594Z,2.10
2023-06-14T21:09:43.785Z,1.93
2023-06-14T21:12:12.936Z,1.80
2023-06-14T21:14:41.177Z,2.20
2023-06-14T21:17:09.765Z,2.05
2023-06-14T21:19:42.535Z,2.30
2023-06-14T21:22:11.152Z,2.35
2023-06-14T21:24:39.104Z,2.30
2023-06-14T21:27:08.005Z,2.08
2023-06-14T21:29:37.576Z,2.28
2023-06-14T21:32:08.203Z,2.15
2023-06-14T21:34:36.126Z,2.30
2023-06-14T21:37:06.466Z,2.33
2023-06-14T21:39:34.921Z,2.25
2023-06-14T21:42:02.798Z,2.33
2023-06-14T21:44:30.696Z,2.20
2023-06-14T21:46:58.751Z,2.60
2023-06-14T21:49:26.704Z,2.10
2023-06-14T21:51:54.562Z,2.28
2023-06-14T21:54:23.792Z,2.47
2023-06-14T21:56:51.731Z,2.17
2023-06-14T21:59:19.640Z,2.10
2023-06-14T22:01:47.837Z,2.00
2023-06-14T22:04:16.048Z,2.47
2023-06-14T22:06:46.188Z,2.27
2023-06-14T22:09:15.759Z,2.35
2023-06-14T22:11:46.906Z,2.08
2023-06-14T22:14:14.792Z,2.25
2023-06-14T22:16:43.304Z,2.30
2023-06-14T22:19:11.365Z,2.03
2023-06-14T22:21:41.284Z,2.10
2023-06-14T22:24:10.203Z,2.08
2023-06-14T22:26:48.850Z,2.47
2023-06-14T22:29:17.853Z,2.15
2023-06-14T22:31:46.046Z,2.20
2023-06-14T22:34:14.114Z,2.10
2023-06-14T22:36:42.787Z,2.45
2023-06-14T22:39:12.525Z,2.38
2023-06-14T22:41:40.839Z,2.50
2023-06-14T22:44:10.023Z,2.10
2023-06-14T22:46:37.970Z,2.13
2023-06-14T22:49:07.190Z,2.10
2023-06-14T22:51:35.342Z,2.30
2023-06-14T22:54:03.339Z,2.50
2023-06-14T22:56:31.302Z,2.40
2023-06-14T22:59:03.461Z,2.40
2023-06-14T23:01:34.034Z,2.30
2023-06-14T23:04:02.125Z,2.10
2023-06-14T23:06:31.173Z,2.28
2023-06-14T23:09:01.121Z,2.50
2023-06-14T23:11:29.181Z,2.30
2023-06-14T23:13:57.618Z,3.08
2023-06-14T23:16:25.907Z,2.60
2023-06-14T23:18:55.263Z,2.70
2023-06-14T23:21:23.151Z,2.63
2023-06-14T23:23:55.127Z,2.65
2023-06-14T23:26:25.986Z,2.72
2023-06-14T23:28:55.636Z,2.20
2023-06-14T23:31:24.612Z,2.80
2023-06-14T23:33:53.627Z,2.47
2023-06-14T23:36:23.291Z,2.40
2023-06-14T23:38:52.124Z,2.55
2023-06-14T23:41:20.866Z,2.50
2023-06-14T23:43:52.379Z,2.50
2023-06-14T23:46:21.647Z,2.55
2023-06-14T23:48:49.675Z,2.20
2023-06-14T23:51:19.962Z,2.47
2023-06-14T23:53:49.757Z,2.50
2023-06-14T23:56:21.724Z,2.30
2023-06-14T23:58:49.992Z,2.30
